Time;durP1;ratioP1;P1;durP2;ratioP2;P2;SDS_P1;SDS_P2;PMS_P1;PMS_P2;Temp;Humidity;BMP_temperature;BMP_pressure;BME280_temperature;BME280_humidity;BME280_pressure;Samples;Min_cycle;Max_cycle;Signal;HPM_P1;HPM_P2
2022/05/23 00:01:49;;;;;;;6.65;4.20;;;16.10;99.90;;;;;;5056122;28;20045;-75
2022/05/23 00:04:19;;;;;;;6.68;4.15;;;16.20;99.90;;;;;;5055327;28;20053;-75
2022/05/23 00:06:48;;;;;;;8.55;4.82;;;16.20;99.90;;;;;;5056386;28;20052;-75
2022/05/23 00:09:17;;;;;;;6.57;4.57;;;16.20;99.90;;;;;;5056753;28;20045;-75
2022/05/23 00:11:45;;;;;;;6.60;4.90;;;16.20;99.90;;;;;;5056362;28;20053;-75
2022/05/23 00:14:14;;;;;;;7.68;4.90;;;16.20;99.90;;;;;;5056523;28;20049;-75
2022/05/23 00:16:44;;;;;;;10.27;4.85;;;16.10;99.90;;;;;;5055242;28;20098;-75
2022/05/23 00:19:12;;;;;;;7.35;4.90;;;16.10;99.90;;;;;;5056689;28;20048;-75
2022/05/23 00:21:45;;;;;;;11.05;5.18;;;16.10;99.90;;;;;;5055236;28;20044;-75
2022/05/23 00:24:13;;;;;;;6.35;5.30;;;16.10;99.90;;;;;;5056515;28;20037;-75
2022/05/23 00:26:42;;;;;;;9.25;4.80;;;16.00;99.90;;;;;;5055193;28;20512;-75
2022/05/23 00:29:10;;;;;;;8.90;4.82;;;15.90;99.90;;;;;;5056623;28;20590;-75
2022/05/23 00:35:17;;;;;;;10.77;4.65;;;15.90;99.90;;;;;;5055103;28;20051;-75
2022/05/23 00:37:11;;;;;;;8.38;4.78;;;15.80;99.90;;;;;;5055435;28;20040;-75
2022/05/23 00:39:38;;;;;;;8.43;4.93;;;15.80;99.90;;;;;;5054972;28;20079;-75
2022/05/23 00:44:56;;;;;;;6.28;4.78;;;15.70;99.90;;;;;;5034722;28;20066;-76
2022/05/23 00:47:25;;;;;;;7.60;4.88;;;15.70;99.90;;;;;;5056014;28;20037;-76
2022/05/23 00:49:53;;;;;;;7.82;5.32;;;15.60;99.90;;;;;;5054729;28;20055;-75
2022/05/23 00:52:26;;;;;;;15.73;11.32;;;15.60;99.90;;;;;;5055934;28;20037;-76
2022/05/23 00:54:58;;;;;;;8.90;5.30;;;15.60;99.90;;;;;;5073999;28;20052;-75
2022/05/23 00:57:31;;;;;;;8.30;4.85;;;15.70;99.90;;;;;;5077941;28;20068;-75
2022/05/23 01:00:00;;;;;;;10.27;5.68;;;15.60;99.90;;;;;;5077201;28;20052;-76
2022/05/23 01:02:30;;;;;;;6.70;5.22;;;15.50;99.90;;;;;;5067675;28;20048;-76
2022/05/23 01:04:57;;;;;;;8.35;5.60;;;15.40;99.90;;;;;;5054465;28;20072;-75
2022/05/23 01:07:26;;;;;;;7.28;5.30;;;15.30;99.90;;;;;;5054160;28;20130;-76
2022/05/23 01:09:54;;;;;;;9.18;4.95;;;15.30;99.90;;;;;;5055763;28;20043;-75
2022/05/23 01:12:22;;;;;;;6.60;4.88;;;15.30;99.90;;;;;;5054210;28;20045;-75
2022/05/23 01:14:51;;;;;;;8.57;4.15;;;15.30;99.90;;;;;;5053832;28;20095;-74
2022/05/23 01:17:20;;;;;;;6.93;4.60;;;15.30;99.90;;;;;;5055509;28;20045;-75
2022/05/23 01:19:49;;;;;;;10.60;4.70;;;15.40;99.90;;;;;;5055137;28;20504;-75
2022/05/23 01:22:27;;;;;;;6.80;4.40;;;15.40;99.90;;;;;;5053249;28;20102;-75
2022/05/23 01:25:06;;;;;;;6.53;4.35;;;15.40;99.90;;;;;;5053778;28;20045;-75
2022/05/23 01:27:37;;;;;;;6.07;4.43;;;15.50;99.90;;;;;;5054742;28;20135;-75
2022/05/23 01:30:06;;;;;;;6.07;4.47;;;15.40;99.90;;;;;;5053760;28;20045;-75
2022/05/23 01:32:39;;;;;;;8.90;4.35;;;15.40;99.90;;;;;;5053482;28;20052;-75
2022/05/23 01:35:08;;;;;;;8.10;4.50;;;15.40;99.90;;;;;;5053798;28;20045;-75
2022/05/23 01:37:36;;;;;;;5.75;4.30;;;15.50;99.90;;;;;;5054556;28;20603;-75
2022/05/23 01:40:16;;;;;;;6.20;3.88;;;15.40;99.90;;;;;;5053806;28;20049;-75
2022/05/23 01:43:01;;;;;;;4.57;3.28;;;15.40;99.90;;;;;;5053297;28;20049;-75
2022/05/23 01:45:30;;;;;;;5.13;3.78;;;15.40;99.90;;;;;;5053562;28;20095;-75
2022/05/23 01:48:07;;;;;;;7.85;3.72;;;15.40;99.90;;;;;;5053619;28;20049;-75
2022/05/23 01:50:36;;;;;;;4.90;3.85;;;15.30;99.90;;;;;;5053067;28;20045;-76
2022/05/23 01:53:06;;;;;;;7.53;3.53;;;15.40;99.90;;;;;;5052540;28;20053;-75
2022/05/23 01:55:44;;;;;;;10.40;3.97;;;15.40;99.90;;;;;;5053374;28;20508;-75
2022/05/23 02:01:12;;;;;;;6.43;3.42;;;15.40;99.90;;;;;;5053538;28;20053;-76
2022/05/23 02:01:15;;;;;;;6.00;3.58;;;15.40;99.90;;;;;;5053346;28;20095;-75
2022/05/23 02:03:55;;;;;;;5.30;3.20;;;15.50;99.90;;;;;;5052730;28;20048;-75
2022/05/23 02:06:25;;;;;;;5.50;3.75;;;15.50;99.90;;;;;;5052759;28;20049;-75
2022/05/23 02:08:57;;;;;;;4.95;3.33;;;15.60;99.90;;;;;;5053208;28;20575;-75
2022/05/23 02:11:30;;;;;;;6.38;3.55;;;15.70;99.90;;;;;;5053005;28;20049;-75
2022/05/23 02:14:00;;;;;;;6.68;3.42;;;15.70;99.90;;;;;;5052670;28;20045;-75
2022/05/23 02:16:37;;;;;;;6.97;3.25;;;15.80;99.90;;;;;;5052726;28;20044;-75
2022/05/23 02:19:04;;;;;;;5.30;3.50;;;15.80;99.90;;;;;;5053282;28;20103;-76
2022/05/23 02:21:32;;;;;;;6.07;3.40;;;15.80;99.90;;;;;;5052777;28;20527;-75
2022/05/23 02:24:03;;;;;;;4.97;3.80;;;15.80;99.90;;;;;;5052773;28;20048;-76
2022/05/23 02:26:32;;;;;;;6.72;3.90;;;15.70;99.90;;;;;;5052920;28;20467;-75
2022/05/23 02:29:05;;;;;;;6.13;3.65;;;15.70;99.90;;;;;;5052725;28;20048;-75
2022/05/23 02:31:33;;;;;;;9.88;4.00;;;15.60;99.90;;;;;;5053875;28;20045;-75
2022/05/23 02:34:06;;;;;;;8.98;3.97;;;15.60;99.90;;;;;;5052444;28;20045;-75
2022/05/23 02:36:38;;;;;;;8.38;3.72;;;15.60;99.90;;;;;;5053845;28;20041;-75
2022/05/23 02:39:07;;;;;;;7.45;3.90;;;15.60;99.90;;;;;;5052361;28;20068;-75
2022/05/23 02:41:36;;;;;;;5.57;4.00;;;15.60;99.90;;;;;;5052191;28;20041;-75
2022/05/23 02:44:07;;;;;;;4.47;3.40;;;15.70;99.90;;;;;;5052386;28;20492;-75
2022/05/23 02:46:35;;;;;;;6.75;4.00;;;15.80;99.90;;;;;;5052093;28;20111;-75
2022/05/23 02:49:07;;;;;;;8.30;3.55;;;15.80;99.90;;;;;;5052342;28;20049;-75
2022/05/23 02:51:39;;;;;;;5.65;3.65;;;15.90;99.90;;;;;;5052106;28;20045;-75
2022/05/23 02:54:11;;;;;;;9.40;4.28;;;15.90;99.90;;;;;;5052201;28;20073;-75
2022/05/23 02:56:40;;;;;;;5.55;3.67;;;15.90;99.90;;;;;;5052356;28;20068;-75
2022/05/23 02:59:10;;;;;;;5.03;3.63;;;15.90;99.90;;;;;;5052224;28;20048;-75
2022/05/23 03:03:01;;;;;;;4.88;3.22;;;15.90;99.90;;;;;;5051594;28;20052;-75
2022/05/23 03:04:36;;;;;;;9.40;3.50;;;15.90;99.90;;;;;;5051148;28;20095;-75
2022/05/23 03:07:03;;;;;;;5.97;3.47;;;15.80;99.90;;;;;;5053303;28;20037;-75
2022/05/23 03:09:32;;;;;;;4.85;3.65;;;15.90;99.90;;;;;;5051798;28;20099;-75
2022/05/23 03:12:00;;;;;;;6.18;3.47;;;15.90;99.90;;;;;;5053458;28;20056;-75
2022/05/23 03:14:31;;;;;;;7.40;3.70;;;16.00;99.90;;;;;;5054635;28;20041;-74
2022/05/23 03:17:01;;;;;;;6.80;3.72;;;16.00;99.90;;;;;;5057574;28;20072;-75
2022/05/23 03:19:29;;;;;;;11.30;3.80;;;16.10;99.90;;;;;;5048092;28;20048;-74
2022/05/23 03:27:32;;;;;;;7.07;3.70;;;16.30;99.90;;;;;;5047486;28;20102;-75
2022/05/23 03:30:13;;;;;;;5.45;3.70;;;16.40;99.90;;;;;;5051837;28;20053;-75
2022/05/23 03:32:53;;;;;;;5.53;4.18;;;16.50;99.90;;;;;;5051547;28;20401;-75
2022/05/23 03:35:21;;;;;;;5.28;3.67;;;16.60;99.90;;;;;;5051649;28;20049;-75
2022/05/23 03:37:49;;;;;;;6.82;4.28;;;16.70;99.90;;;;;;5052890;28;20120;-75
2022/05/23 03:40:18;;;;;;;8.73;4.22;;;16.70;99.90;;;;;;5051975;28;20060;-75
2022/05/23 03:42:53;;;;;;;5.07;3.90;;;16.80;99.90;;;;;;5051496;28;20052;-75
2022/05/23 03:45:22;;;;;;;7.15;4.13;;;16.80;99.90;;;;;;5051418;28;20445;-75
2022/05/23 03:47:51;;;;;;;8.15;4.28;;;16.80;99.90;;;;;;5051563;28;20137;-75
2022/05/23 03:50:19;;;;;;;10.13;4.25;;;16.80;99.90;;;;;;5051176;28;20530;-75
2022/05/23 03:52:46;;;;;;;6.13;4.32;;;16.60;99.90;;;;;;5052199;28;20096;-75
2022/05/23 03:55:24;;;;;;;5.75;4.68;;;16.70;99.90;;;;;;5052217;28;20052;-75
2022/05/23 03:58:07;;;;;;;7.78;4.00;;;16.80;99.90;;;;;;5051624;28;20530;-75
2022/05/23 04:00:36;;;;;;;5.60;4.15;;;16.90;99.90;;;;;;5051633;28;20056;-75
2022/05/23 04:03:03;;;;;;;7.07;3.90;;;17.00;99.90;;;;;;5050442;28;20049;-75
2022/05/23 04:05:31;;;;;;;9.60;4.15;;;17.10;99.90;;;;;;5051832;28;20037;-75
2022/05/23 04:08:18;;;;;;;6.82;4.07;;;17.40;99.90;;;;;;5051435;28;20061;-75
2022/05/23 04:10:51;;;;;;;5.60;3.45;;;17.90;99.90;;;;;;5051441;28;20053;-77
2022/05/23 04:13:19;;;;;;;5.75;3.45;;;18.90;99.90;;;;;;5051081;28;20045;-75
2022/05/23 04:15:49;;;;;;;6.53;3.50;;;19.70;99.90;;;;;;5040637;28;20041;-76
2022/05/23 04:18:17;;;;;;;4.30;3.10;;;20.40;99.90;;;;;;5054831;28;20051;-76
2022/05/23 04:20:45;;;;;;;6.07;3.42;;;20.60;99.90;;;;;;5054912;28;20045;-75
2022/05/23 04:23:18;;;;;;;6.50;3.42;;;20.50;99.90;;;;;;5054245;28;20412;-75
2022/05/23 04:25:48;;;;;;;9.43;3.70;;;20.20;99.90;;;;;;5054561;28;20067;-75
2022/05/23 04:28:19;;;;;;;11.85;6.13;;;19.80;99.90;;;;;;5054341;28;20088;-75
2022/05/23 04:30:48;;;;;;;8.65;5.53;;;19.50;99.90;;;;;;5054424;28;20044;-76
2022/05/23 04:36:06;;;;;;;10.30;5.68;;;18.80;99.90;;;;;;5055482;28;20045;-75
2022/05/23 04:38:36;;;;;;;7.85;5.00;;;18.60;99.90;;;;;;5053705;28;20037;-75
2022/05/23 04:41:06;;;;;;;7.85;4.00;;;18.50;99.90;;;;;;5053154;28;20037;-74
2022/05/23 04:43:50;;;;;;;6.88;4.38;;;18.50;99.90;;;;;;5053939;28;20511;-75
2022/05/23 04:46:24;;;;;;;6.82;4.93;;;18.70;99.90;;;;;;5054486;28;20522;-75
2022/05/23 04:52:00;;;;;;;11.50;5.70;;;19.10;99.90;;;;;;5044294;28;20415;-74
2022/05/23 04:54:36;;;;;;;9.60;6.82;;;19.10;99.90;;;;;;5054228;28;20068;-75
2022/05/23 04:57:07;;;;;;;9.75;6.30;;;18.90;99.90;;;;;;5053893;28;20045;-74
2022/05/23 04:59:36;;;;;;;13.30;6.25;;;19.00;99.90;;;;;;5055715;28;20464;-75
2022/05/23 05:02:07;;;;;;;5.90;4.32;;;19.00;99.90;;;;;;5054162;28;20052;-76
2022/05/23 05:04:35;;;;;;;7.70;4.18;;;19.00;99.90;;;;;;5053366;28;20091;-75
2022/05/23 05:07:02;;;;;;;8.15;4.55;;;18.80;99.90;;;;;;5054225;28;20070;-76
2022/05/23 05:09:33;;;;;;;7.43;4.50;;;18.60;99.90;;;;;;5054097;28;20106;-75
2022/05/23 05:12:07;;;;;;;7.80;4.15;;;18.60;99.90;;;;;;5054041;28;20076;-77
2022/05/23 05:14:36;;;;;;;7.10;3.90;;;19.80;99.90;;;;;;5053855;28;20045;-75
2022/05/23 05:17:10;;;;;;;8.57;3.47;;;21.20;99.90;;;;;;5054062;28;20051;-77
2022/05/23 05:19:38;;;;;;;7.65;3.70;;;22.30;99.90;;;;;;5053420;28;20367;-77
2022/05/23 05:22:25;;;;;;;6.03;3.58;;;23.40;99.90;;;;;;5055592;28;20055;-76
2022/05/23 05:25:31;;;;;;;6.90;3.60;;;24.40;99.90;;;;;;5033074;28;20133;-77
2022/05/23 05:28:06;;;;;;;7.80;3.65;;;25.20;99.90;;;;;;5015633;28;20420;-76
2022/05/23 05:30:41;;;;;;;6.18;3.60;;;25.70;99.90;;;;;;5044339;28;20045;-77
2022/05/23 05:33:17;;;;;;;6.47;3.00;;;26.00;99.90;;;;;;5053810;28;20049;-77
2022/05/23 05:35:48;;;;;;;6.55;3.50;;;25.80;99.90;;;;;;5053607;28;20064;-76
2022/05/23 05:38:19;;;;;;;9.00;3.25;;;25.10;99.90;;;;;;5054481;28;20415;-77
2022/05/23 05:40:51;;;;;;;6.93;3.50;;;24.50;99.90;;;;;;5054676;28;20091;-77
2022/05/23 05:43:23;;;;;;;8.40;3.70;;;24.00;99.90;;;;;;5053032;28;20123;-77
2022/05/23 05:45:58;;;;;;;5.18;3.15;;;23.50;99.90;;;;;;5052052;28;20037;-77
2022/05/23 05:48:47;;;;;;;7.85;3.38;;;23.20;99.90;;;;;;5043523;28;20066;-77
2022/05/23 05:51:16;;;;;;;6.45;2.95;;;23.00;99.90;;;;;;5052355;28;20468;-77
2022/05/23 05:54:04;;;;;;;11.25;3.05;;;22.70;99.90;;;;;;5051986;28;20112;-77
2022/05/23 05:56:43;;;;;;;8.88;4.28;;;22.30;99.90;;;;;;5051077;28;20048;-77
2022/05/23 05:59:11;;;;;;;6.85;3.30;;;21.90;99.90;;;;;;5052305;28;20048;-77
2022/05/23 06:01:45;;;;;;;8.60;4.00;;;22.00;99.90;;;;;;5051130;28;20459;-76
2022/05/23 06:04:14;;;;;;;7.10;3.60;;;22.40;99.90;;;;;;5052538;28;20076;-76
2022/05/23 06:12:31;;;;;;;7.65;2.88;;;24.30;99.90;;;;;;5053629;28;20056;-75
2022/05/23 06:15:19;;;;;;;7.53;2.65;;;24.70;99.90;;;;;;5048563;28;20057;-76
2022/05/23 06:17:47;;;;;;;7.75;2.55;;;24.50;99.90;;;;;;5055233;28;20056;-76
2022/05/23 06:20:17;;;;;;;5.60;2.67;;;24.30;99.90;;;;;;5053865;28;20079;-77
2022/05/23 06:22:50;;;;;;;6.88;2.40;;;24.70;99.90;;;;;;5052786;28;20095;-75
2022/05/23 06:25:18;;;;;;;7.78;2.63;;;24.50;99.90;;;;;;5052948;28;20047;-78
2022/05/23 06:27:47;;;;;;;5.75;2.28;;;23.90;99.90;;;;;;5052765;28;20045;-75
2022/05/23 06:30:18;;;;;;;6.47;2.20;;;23.60;99.90;;;;;;5053077;28;20500;-77
2022/05/23 06:33:12;;;;;;;4.53;2.95;;;23.50;99.90;;;;;;5052805;28;20411;-77
2022/05/23 06:36:03;;;;;;;5.45;2.38;;;23.20;99.90;;;;;;5054773;28;20411;-78
2022/05/23 06:38:31;;;;;;;5.55;2.72;;;23.10;99.90;;;;;;5053120;28;20057;-77
2022/05/23 06:41:22;;;;;;;8.48;2.60;;;23.00;99.90;;;;;;5045656;28;20053;-77
2022/05/23 06:43:52;;;;;;;8.20;2.75;;;23.00;99.90;;;;;;5053872;28;20048;-76
2022/05/23 06:46:22;;;;;;;5.80;2.75;;;22.90;99.90;;;;;;5054016;28;20124;-75
2022/05/23 06:49:10;;;;;;;4.75;2.60;;;23.00;99.90;;;;;;5052463;28;20056;-77
2022/05/23 06:52:08;;;;;;;6.70;3.13;;;22.80;99.90;;;;;;5017158;28;20050;-76
2022/05/23 06:54:53;;;;;;;9.57;4.50;;;22.90;99.90;;;;;;5052408;28;20041;-77
2022/05/23 06:57:26;;;;;;;7.35;2.75;;;23.20;99.90;;;;;;5052764;28;20053;-77
2022/05/23 06:59:54;;;;;;;8.75;5.22;;;22.90;99.90;;;;;;5053664;28;20040;-76
2022/05/23 07:02:21;;;;;;;8.45;2.72;;;22.80;99.90;;;;;;5051919;28;20052;-76
2022/05/23 07:13:38;;;;;;;5.55;3.20;;;23.30;99.90;;;;;;5048334;28;20051;-76
2022/05/23 07:16:06;;;;;;;10.50;3.33;;;23.50;99.90;;;;;;5048628;28;20099;-76
2022/05/23 07:18:34;;;;;;;6.00;2.40;;;23.90;99.90;;;;;;5048439;28;20052;-76
2022/05/23 07:21:09;;;;;;;7.82;3.20;;;24.30;99.90;;;;;;5048593;28;20037;-76
2022/05/23 07:24:00;;;;;;;5.63;2.40;;;24.50;99.90;;;;;;5040547;28;20057;-77
2022/05/23 07:26:48;;;;;;;7.00;3.28;;;24.50;99.90;;;;;;5052407;28;20106;-76
2022/05/23 07:29:17;;;;;;;5.72;2.80;;;24.50;99.90;;;;;;5051272;28;20049;-76
2022/05/23 07:31:46;;;;;;;6.20;2.80;;;24.80;99.90;;;;;;5051510;28;20040;-77
2022/05/23 07:34:13;;;;;;;8.73;2.60;;;24.60;99.90;;;;;;5051789;28;20045;-78
2022/05/23 07:36:41;;;;;;;44.85;6.38;;;24.60;99.90;;;;;;5055570;28;20045;-78
2022/05/23 07:39:14;;;;;;;9.68;3.15;;;24.40;99.90;;;;;;5058842;28;20772;-76
2022/05/23 07:42:06;;;;;;;6.00;2.70;;;24.90;99.90;;;;;;5033290;28;20080;-77
2022/05/23 07:44:35;;;;;;;6.15;2.33;;;25.30;99.90;;;;;;5055692;28;20041;-78
2022/05/23 07:47:09;;;;;;;8.82;2.92;;;25.10;99.90;;;;;;5047051;28;20048;-76
2022/05/23 07:49:47;;;;;;;9.05;2.80;;;24.90;99.90;;;;;;5052003;28;20045;-78
2022/05/23 07:52:17;;;;;;;7.20;2.97;;;25.00;99.90;;;;;;5055923;28;20059;-78
2022/05/23 08:00:32;;;;;;;4.72;2.30;;;25.20;99.90;;;;;;5054793;28;20049;-78
2022/05/23 08:03:14;;;;;;;6.75;2.20;;;24.90;99.90;;;;;;5040467;28;20376;-77
2022/05/23 08:05:44;;;;;;;5.32;2.20;;;24.20;99.90;;;;;;5035517;28;20137;-78
2022/05/23 08:08:13;;;;;;;4.32;2.30;;;24.10;99.90;;;;;;5049632;28;20052;-77
2022/05/23 08:10:43;;;;;;;5.85;2.13;;;23.90;99.90;;;;;;5055199;28;20109;-77
2022/05/23 08:13:10;;;;;;;6.35;2.00;;;24.20;99.90;;;;;;5054736;28;20052;-77
2022/05/23 08:15:41;;;;;;;7.45;4.43;;;24.50;99.90;;;;;;5055425;28;20095;-77
2022/05/23 08:18:15;;;;;;;6.95;3.58;;;24.80;99.90;;;;;;5056119;28;20462;-78
2022/05/23 08:20:50;;;;;;;7.38;2.78;;;25.10;99.90;;;;;;5047272;28;20079;-76
2022/05/23 08:23:24;;;;;;;5.78;2.47;;;25.30;99.90;;;;;;5035023;28;20049;-76
2022/05/23 08:26:27;;;;;;;5.65;2.45;;;25.60;99.90;;;;;;5045440;28;20045;-76
2022/05/23 08:28:55;;;;;;;6.47;2.42;;;25.80;99.90;;;;;;5054727;28;20148;-76
2022/05/23 08:31:27;;;;;;;6.97;2.40;;;25.80;99.90;;;;;;5054906;28;20046;-75
2022/05/23 08:34:09;;;;;;;5.10;1.88;;;26.00;99.90;;;;;;5055329;28;20201;-77
2022/05/23 08:36:41;;;;;;;9.70;2.15;;;26.00;99.90;;;;;;5055107;28;20044;-78
2022/05/23 08:39:10;;;;;;;4.30;2.05;;;25.80;99.90;;;;;;5055172;28;20048;-77
2022/05/23 08:41:54;;;;;;;4.65;2.70;;;25.70;99.90;;;;;;5054831;28;20106;-77
2022/05/23 08:44:58;;;;;;;5.00;1.75;;;25.90;99.90;;;;;;5030688;28;20053;-77
2022/05/23 08:47:34;;;;;;;4.50;1.88;;;26.20;99.90;;;;;;5054346;28;20052;-77
2022/05/23 08:50:11;;;;;;;7.28;2.25;;;25.60;99.90;;;;;;5055118;28;20045;-76
2022/05/23 08:52:48;;;;;;;5.35;2.03;;;25.70;99.90;;;;;;5055305;28;20080;-77
2022/05/23 08:55:39;;;;;;;5.63;1.98;;;26.00;99.90;;;;;;5055111;28;20504;-77
2022/05/23 08:58:35;;;;;;;7.00;2.70;;;26.20;99.90;;;;;;5055751;28;20053;-77
2022/05/23 09:01:06;;;;;;;6.15;2.88;;;26.10;99.90;;;;;;5057620;28;20075;-77
2022/05/23 09:03:39;;;;;;;13.30;5.95;;;26.30;99.90;;;;;;5055955;28;20053;-77
2022/05/23 09:06:13;;;;;;;7.38;4.20;;;26.40;99.90;;;;;;5067355;28;20075;-77
2022/05/23 09:08:48;;;;;;;8.40;2.45;;;26.60;99.90;;;;;;5061764;28;20500;-76
2022/05/23 09:11:20;;;;;;;;;;;26.90;99.90;;;;;;5059057;28;20128;-77
2022/05/23 09:13:49;;;;;;;8.32;3.13;;;27.00;99.90;;;;;;5060202;28;19920;-77
2022/05/23 09:16:16;;;;;;;8.15;2.75;;;27.20;99.90;;;;;;5057239;28;20507;-76
2022/05/23 09:18:51;;;;;;;6.28;3.80;;;27.00;99.90;;;;;;5055786;28;20504;-77
2022/05/23 09:21:19;;;;;;;5.55;3.30;;;26.60;99.90;;;;;;5055242;28;20540;-77
2022/05/23 09:23:51;;;;;;;4.50;3.00;;;26.40;99.90;;;;;;5055618;28;20076;-76
2022/05/23 09:26:23;;;;;;;4.88;2.80;;;26.20;99.90;;;;;;5055393;28;20129;-76
2022/05/23 09:28:52;;;;;;;8.27;3.17;;;26.20;99.90;;;;;;5056059;28;20052;-76
2022/05/23 09:31:30;;;;;;;6.60;3.40;;;25.90;99.90;;;;;;5055825;28;20095;-76
2022/05/23 09:33:59;;;;;;;6.18;3.00;;;25.50;99.90;;;;;;5055309;28;20049;-76
2022/05/23 09:36:32;;;;;;;6.38;3.60;;;25.70;99.90;;;;;;5055499;28;20128;-76
2022/05/23 09:39:01;;;;;;;6.88;3.83;;;26.20;99.90;;;;;;5053903;28;20103;-76
2022/05/23 09:47:49;;;;;;;7.15;2.85;;;26.10;99.90;;;;;;5055314;28;20037;-76
2022/05/23 09:50:32;;;;;;;4.57;2.95;;;26.20;99.90;;;;;;5053949;28;20048;-76
2022/05/23 09:53:01;;;;;;;7.25;3.00;;;26.30;99.90;;;;;;5054799;28;20134;-76
2022/05/23 09:55:31;;;;;;;5.85;3.13;;;25.90;99.90;;;;;;5054700;28;20151;-77
2022/05/23 09:58:02;;;;;;;6.82;3.35;;;25.70;99.90;;;;;;5054832;28;20527;-77
2022/05/23 10:00:35;;;;;;;7.40;2.80;;;25.90;99.90;;;;;;5059030;28;20135;-77
2022/05/23 10:03:05;;;;;;;7.38;3.97;;;26.20;99.90;;;;;;5070916;28;20048;-77
2022/05/23 10:05:36;;;;;;;6.55;4.25;;;26.40;99.90;;;;;;5071444;28;20060;-77
2022/05/23 10:08:12;;;;;;;8.00;3.58;;;26.80;99.90;;;;;;5070317;28;20048;-77
2022/05/23 10:10:52;;;;;;;6.68;4.75;;;26.80;99.90;;;;;;5070244;28;20069;-77
2022/05/23 10:13:24;;;;;;;9.52;2.88;;;27.20;99.90;;;;;;5065130;28;20094;-77
2022/05/23 10:15:57;;;;;;;5.53;3.60;;;26.50;99.90;;;;;;5056174;28;20128;-77
2022/05/23 10:18:27;;;;;;;8.02;3.80;;;26.60;99.90;;;;;;5057935;28;20051;-76
2022/05/23 10:20:55;;;;;;;7.40;3.17;;;26.80;99.90;;;;;;5057486;28;20060;-77
2022/05/23 10:23:25;;;;;;;7.75;3.70;;;26.20;99.90;;;;;;5057183;28;20226;-77
2022/05/23 10:26:00;;;;;;;7.90;3.92;;;26.00;99.90;;;;;;5055111;28;20068;-77
2022/05/23 10:28:36;;;;;;;7.30;3.47;;;26.60;99.90;;;;;;5055927;28;20050;-78
2022/05/23 10:31:06;;;;;;;;;;;27.20;99.90;;;;;;5065901;28;20067;-77
2022/05/23 10:33:35;;;;;;;7.75;3.70;;;27.40;99.90;;;;;;5065898;28;19943;-78
2022/05/23 10:36:08;;;;;;;11.07;4.07;;;27.50;99.90;;;;;;5058302;28;20064;-77
2022/05/23 10:44:38;;;;;;;7.63;4.65;;;27.40;99.90;;;;;;5055179;28;20041;-77
2022/05/23 10:47:15;;;;;;;7.97;5.68;;;27.40;99.90;;;;;;5053001;28;20075;-77
2022/05/23 10:49:52;;;;;;;5.78;4.22;;;27.70;99.90;;;;;;5054245;28;20055;-77
2022/05/23 10:52:30;;;;;;;7.63;4.10;;;27.20;99.90;;;;;;5052405;28;20076;-77
2022/05/23 10:55:08;;;;;;;7.03;3.83;;;27.00;99.90;;;;;;5053406;28;20084;-77
2022/05/23 10:57:50;;;;;;;12.68;5.93;;;27.30;99.90;;;;;;5052142;28;20516;-77
2022/05/23 11:00:22;;;;;;;8.07;4.10;;;27.30;99.90;;;;;;5053524;28;20051;-77
2022/05/23 11:03:09;;;;;;;7.32;4.00;;;27.20;99.90;;;;;;5053700;28;20084;-77
2022/05/23 11:05:45;;;;;;;6.60;4.93;;;27.20;99.90;;;;;;5053485;28;20033;-77
2022/05/23 11:08:37;;;;;;;11.38;4.70;;;27.10;99.90;;;;;;5054035;28;20037;-77
2022/05/23 11:11:16;;;;;;;6.63;4.05;;;27.50;99.90;;;;;;5049526;28;20491;-77
2022/05/23 11:13:54;;;;;;;17.27;6.00;;;27.70;99.90;;;;;;5053289;28;20075;-78
2022/05/23 11:16:28;;;;;;;9.25;4.40;;;27.60;99.90;;;;;;5053209;28;20049;-78
2022/05/23 11:19:11;;;;;;;9.15;4.30;;;27.60;99.90;;;;;;5053690;28;20102;-77
2022/05/23 11:21:47;;;;;;;10.70;4.13;;;27.50;99.90;;;;;;5053229;28;20045;-77
2022/05/23 11:24:20;;;;;;;8.15;4.40;;;27.70;99.90;;;;;;5052840;28;20053;-77
2022/05/23 11:26:50;;;;;;;8.00;4.13;;;27.60;99.90;;;;;;5052807;28;20123;-77
2022/05/23 11:34:59;;;;;;;8.10;7.00;;;27.50;99.90;;;;;;5052841;28;20041;-77
2022/05/23 11:37:45;;;;;;;9.02;5.60;;;27.80;99.90;;;;;;5053155;28;20064;-77
2022/05/23 11:40:34;;;;;;;8.88;5.10;;;27.70;99.90;;;;;;5052994;28;20044;-76
2022/05/23 11:43:04;;;;;;;8.05;4.65;;;27.70;99.90;;;;;;5051256;28;20162;-77
2022/05/23 11:48:53;;;;;;;9.07;3.80;;;27.10;99.90;;;;;;5054359;28;20045;-77
2022/05/23 11:51:37;;;;;;;7.82;3.92;;;26.90;99.90;;;;;;5053225;28;21202;-77
2022/05/23 11:54:12;;;;;;;7.40;4.32;;;27.10;99.90;;;;;;5054582;28;20442;-77
2022/05/23 11:57:11;;;;;;;7.70;4.43;;;27.30;99.90;;;;;;5052388;28;20091;-77
2022/05/23 12:00:01;;;;;;;6.97;4.32;;;27.30;99.90;;;;;;5054204;28;20040;-77
2022/05/23 12:02:29;;;;;;;9.85;5.38;;;27.00;99.90;;;;;;5052956;28;20048;-77
2022/05/23 12:05:26;;;;;;;8.07;4.32;;;26.90;99.90;;;;;;5053042;28;20128;-77
2022/05/23 12:08:05;;;;;;;9.30;4.90;;;27.10;99.90;;;;;;5052913;28;20052;-76
2022/05/23 12:10:58;;;;;;;5.60;4.82;;;27.00;99.90;;;;;;5051940;28;20077;-77
2022/05/23 12:13:48;;;;;;;11.50;5.97;;;26.80;99.90;;;;;;5043216;28;20067;-78
2022/05/23 12:16:48;;;;;;;9.45;5.47;;;26.60;99.90;;;;;;5052645;28;20446;-78
2022/05/23 12:19:48;;;;;;;10.55;5.43;;;26.40;99.90;;;;;;5051151;28;20389;-77
2022/05/23 12:22:26;;;;;;;6.97;5.30;;;26.10;99.90;;;;;;5052392;28;20068;-78
2022/05/23 12:25:18;;;;;;;9.57;5.90;;;25.80;99.90;;;;;;5052536;28;20045;-77
2022/05/23 12:28:14;;;;;;;8.90;5.00;;;25.70;99.90;;;;;;5052926;28;20491;-77
2022/05/23 12:30:44;;;;;;;8.90;6.00;;;25.70;99.90;;;;;;5053445;28;20045;-77
2022/05/23 12:33:22;;;;;;;12.18;5.22;;;25.70;99.90;;;;;;5051085;28;20075;-77
2022/05/23 12:35:55;;;;;;;8.10;5.20;;;25.60;99.90;;;;;;5052614;28;20506;-76
2022/05/23 12:38:53;;;;;;;9.45;6.13;;;25.50;99.90;;;;;;5056505;28;20051;-77
2022/05/23 12:41:53;;;;;;;11.00;7.05;;;25.70;99.90;;;;;;5031630;28;20523;-77
2022/05/23 12:45:00;;;;;;;10.23;6.65;;;26.00;99.90;;;;;;5054373;28;20045;-77
2022/05/23 12:47:48;;;;;;;9.73;7.13;;;26.10;99.90;;;;;;5054609;28;20099;-77
2022/05/23 12:50:25;;;;;;;10.43;7.25;;;26.00;99.90;;;;;;5055206;28;20053;-77
2022/05/23 12:53:34;;;;;;;8.93;7.43;;;25.70;99.90;;;;;;5056141;28;20044;-77
2022/05/23 12:56:18;;;;;;;10.75;7.65;;;26.00;99.90;;;;;;5055779;28;20052;-77
2022/05/23 12:59:23;;;;;;;8.10;6.57;;;25.90;99.90;;;;;;5056568;28;20053;-79
2022/05/23 13:01:55;;;;;;;11.07;6.60;;;26.00;99.90;;;;;;5055260;28;20049;-77
2022/05/23 13:04:26;;;;;;;20.48;14.30;;;26.20;99.90;;;;;;5055766;28;20060;-77
2022/05/23 13:06:58;;;;;;;11.30;8.43;;;26.40;99.90;;;;;;5055624;28;20048;-77
2022/05/23 13:09:35;;;;;;;9.13;8.10;;;26.50;99.90;;;;;;5055549;28;20064;-76
2022/05/23 13:12:09;;;;;;;11.73;6.70;;;26.50;99.90;;;;;;5056710;28;20120;-75
2022/05/23 13:14:57;;;;;;;12.38;8.98;;;26.60;99.90;;;;;;5056160;28;20128;-75
2022/05/23 13:17:46;;;;;;;13.80;6.65;;;26.10;99.90;;;;;;5056673;28;20051;-75
2022/05/23 13:23:16;;;;;;;7.35;5.45;;;25.80;99.90;;;;;;5055542;28;20431;-75
2022/05/23 13:25:45;;;;;;;6.95;4.85;;;26.00;99.90;;;;;;5055203;28;20044;-76
2022/05/23 13:28:15;;;;;;;6.80;4.65;;;25.90;99.90;;;;;;5054727;28;20468;-75
2022/05/23 13:30:47;;;;;;;12.05;6.53;;;26.00;99.90;;;;;;5055027;28;20123;-75
2022/05/23 13:33:17;;;;;;;6.13;3.95;;;26.10;99.90;;;;;;5055102;28;20041;-75
2022/05/23 13:35:46;;;;;;;7.25;4.05;;;25.90;99.90;;;;;;5055419;28;20041;-75
2022/05/23 13:38:21;;;;;;;11.07;7.75;;;25.70;99.90;;;;;;5055015;28;20049;-75
2022/05/23 13:40:52;;;;;;;41.65;32.70;;;25.70;99.90;;;;;;5053955;28;20044;-76
2022/05/23 13:43:22;;;;;;;7.45;5.15;;;26.00;99.90;;;;;;5055517;28;20037;-76
2022/05/23 13:46:03;;;;;;;6.90;4.22;;;26.20;99.90;;;;;;5054671;28;20055;-77
2022/05/23 13:48:40;;;;;;;7.60;4.07;;;25.80;99.90;;;;;;5054337;28;20073;-76
2022/05/23 13:51:14;;;;;;;7.25;4.03;;;25.70;99.90;;;;;;5054856;28;20047;-76
2022/05/23 13:53:47;;;;;;;5.70;3.70;;;25.80;99.90;;;;;;5054309;28;20510;-76
2022/05/23 13:56:15;;;;;;;7.82;3.83;;;25.70;99.90;;;;;;5048092;28;20403;-77
2022/05/23 13:58:48;;;;;;;7.30;4.25;;;25.70;99.90;;;;;;5052262;28;20045;-75
2022/05/23 14:01:22;;;;;;;10.55;4.30;;;25.70;99.90;;;;;;5053045;28;20516;-75
2022/05/23 14:03:58;;;;;;;7.97;3.97;;;25.50;99.90;;;;;;5056905;28;20044;-75
2022/05/23 14:06:30;;;;;;;5.50;3.90;;;25.50;99.90;;;;;;5055416;28;20041;-75
2022/05/23 14:09:02;;;;;;;7.30;4.05;;;25.50;99.90;;;;;;5046749;28;20049;-77
2022/05/23 14:11:33;;;;;;;6.63;3.83;;;25.60;99.90;;;;;;5035577;28;20045;-76
2022/05/23 14:14:13;;;;;;;7.38;4.05;;;25.80;99.90;;;;;;5034416;28;20090;-77
2022/05/23 14:16:49;;;;;;;5.03;3.97;;;25.70;99.90;;;;;;5038253;28;20041;-76
2022/05/23 14:19:22;;;;;;;10.80;4.57;;;25.60;99.90;;;;;;5034926;28;20049;-76
2022/05/23 14:22:02;;;;;;;8.30;4.25;;;25.50;99.90;;;;;;5049020;28;20124;-76
2022/05/23 14:24:31;;;;;;;7.85;3.83;;;25.70;99.90;;;;;;5056167;28;20092;-75
2022/05/23 14:27:21;;;;;;;7.55;4.05;;;25.80;99.90;;;;;;5055178;28;20059;-77